Trine Charlotte — LMRY — position and weather

sailwx.info

Track history (hours):
 
Tides and Currents Weather Stations Pressure Air Temp Water Temp Dewpoint Dewpoint Depression Visibility Wind Speed Wind Dir Waves Ship Positions

Trine Charlotte

Last reported at 2015-Aug-31 14:25 UTC. Time now 2015-Sep-01 07:59 UTC.
Position N 67°37' E 014°45'.

Length 66 m; draft 4.6 m.

Type: Cargo ship. MMSI: 257233000.

Date/timePositionNaut miles runAvg speedWind from/ knotsBaromVisibWave heightAir tempDewpointWater temp
2015-Aug-31 14:25N 67°37' E 014°45'17 8.5
2015-Aug-31 12:22N 67°30' E 015°26'7 8.8
2015-Aug-31 11:33N 67°24' E 015°34'2 1.9
2015-Aug-31 10:33N 67°22' E 015°35'0 0.0
2015-Aug-31 09:33N 67°22' E 015°35'0 0.0
2015-Aug-31 08:33N 67°22' E 015°35'0 0.0
2015-Aug-31 07:33N 67°22' E 015°35'0 0.0
2015-Aug-31 06:33N 67°22' E 015°35'0 0.0
2015-Aug-31 05:33N 67°22' E 015°35'0 0.0
2015-Aug-31 04:33N 67°22' E 015°35'1 1.4
2015-Aug-31 03:33N 67°23' E 015°35'26 8.6
2015-Aug-31 00:33N 67°37' E 014°38'6 0.1
2015-Aug-28 22:09N 67°33' E 014°30'5 8.9
2015-Aug-28 21:33N 67°27' E 014°28'9 9.1
2015-Aug-28 20:33N 67°19' E 014°18'10 9.6
2015-Aug-28 19:33N 67°11' E 014°05'10 9.7
2015-Aug-28 18:33N 67°03' E 013°51'10 9.6
2015-Aug-28 17:33N 66°58' E 013°30'10 9.2
2015-Aug-28 16:30N 66°50' E 013°16'20 9.8
2015-Aug-28 14:27N 66°31' E 012°58'910.3
2015-Aug-28 13:33N 66°22' E 012°58'1 0.0
2015-Aug-27 06:32N 66°21' E 012°58'9 8.7
2015-Aug-27 05:33N 66°30' E 012°59'27 8.4
2015-Aug-27 02:22N 66°54' E 013°26'7 8.3
2015-Aug-27 01:31N 66°60' E 013°38'9 9.0
2015-Aug-27 00:32N 67°05' E 013°55'9 8.7
2015-Aug-26 23:33N 67°12' E 014°09'9 9.4
2015-Aug-26 22:33N 67°15' E 014°31'5 5.1
2015-Aug-26 21:33N 67°18' E 014°42'0 0.0
2015-Aug-26 20:33N 67°18' E 014°42'0 0.0
2015-Aug-26 19:25N 67°18' E 014°42'7 8.0
2015-Aug-26 18:33N 67°15' E 014°27'9 9.4
2015-Aug-26 17:33N 67°11' E 014°05'10 9.8
2015-Aug-26 16:33N 67°03' E 013°50'9 9.4
2015-Aug-26 15:33N 66°58' E 013°30'10 8.9
2015-Aug-26 14:29N 66°50' E 013°16'20 9.4
2015-Aug-26 12:21N 66°31' E 012°58'8 9.8
2015-Aug-26 11:33N 66°23' E 012°58'5 0.2
2015-Aug-25 10:30N 66°18' E 012°56'10 8.9
2015-Aug-25 09:24N 66°28' E 012°59'32 8.3
2015-Aug-25 05:33N 66°58' E 013°30'9 8.8
2015-Aug-25 04:33N 67°02' E 013°48'9 8.7
2015-Aug-25 03:33N 67°09' E 014°02'9 8.6
2015-Aug-25 02:33N 67°14' E 014°21'9 8.9
2015-Aug-25 01:33N 67°18' E 014°41'0 0.4
2015-Aug-25 00:13N 67°18' E 014°42'1 1.8
2015-Aug-24 23:33N 67°17' E 014°40'9 9.3
2015-Aug-24 22:33N 67°14' E 014°18'9 9.4
2015-Aug-24 21:33N 67°07' E 014°00'10 9.9
2015-Aug-24 20:33N 67°00' E 013°42'9 8.7
2015-Aug-24 19:33N 66°54' E 013°27'10 9.4
2015-Aug-24 18:32N 66°46' E 013°13'18 9.3
2015-Aug-24 16:33N 66°29' E 012°59'10 9.9
2015-Aug-24 15:33N 66°19' E 012°56'71 2.7
2015-Aug-23 13:31N 65°13' E 011°53'8 8.6
2015-Aug-23 12:33N 65°05' E 011°47'9 8.6
2015-Aug-23 11:33N 64°58' E 011°34'9 8.9
2015-Aug-23 10:33N 64°53' E 011°18'9 8.7
2015-Aug-23 09:33N 64°46' E 011°03'51 8.5
2015-Aug-23 03:32N 64°05' E 009°54'9 8.9
2015-Aug-23 02:33N 63°58' E 009°41'9 8.8
2015-Aug-23 01:33N 63°52' E 009°27'9 8.6
2015-Aug-23 00:33N 63°44' E 009°18'  
Track history (hours):
 
Tides and Currents Weather Stations Pressure Air Temp Water Temp Dewpoint Dewpoint Depression Visibility Wind Speed Wind Dir Waves Ship Positions

Trine Charlotte

Last reported at 2015-Aug-31 14:25 UTC. Time now 2015-Sep-01 07:59 UTC.
Position N 67°37' E 014°45'.

Length 66 m; draft 4.6 m.

Type: Cargo ship. MMSI: 257233000.

Date/timePositionNaut miles runAvg speedWind from/ knotsBaromVisibWave heightAir tempDewpointWater temp
2015-Aug-31 14:25N 67°37' E 014°45'17 8.5
2015-Aug-31 12:22N 67°30' E 015°26'7 8.8
2015-Aug-31 11:33N 67°24' E 015°34'2 1.9
2015-Aug-31 10:33N 67°22' E 015°35'0 0.0
2015-Aug-31 09:33N 67°22' E 015°35'0 0.0
2015-Aug-31 08:33N 67°22' E 015°35'0 0.0
2015-Aug-31 07:33N 67°22' E 015°35'0 0.0
2015-Aug-31 06:33N 67°22' E 015°35'0 0.0
2015-Aug-31 05:33N 67°22' E 015°35'0 0.0
2015-Aug-31 04:33N 67°22' E 015°35'1 1.4
2015-Aug-31 03:33N 67°23' E 015°35'26 8.6
2015-Aug-31 00:33N 67°37' E 014°38'6 0.1
2015-Aug-28 22:09N 67°33' E 014°30'5 8.9
2015-Aug-28 21:33N 67°27' E 014°28'9 9.1
2015-Aug-28 20:33N 67°19' E 014°18'10 9.6
2015-Aug-28 19:33N 67°11' E 014°05'10 9.7
2015-Aug-28 18:33N 67°03' E 013°51'10 9.6
2015-Aug-28 17:33N 66°58' E 013°30'10 9.2
2015-Aug-28 16:30N 66°50' E 013°16'20 9.8
2015-Aug-28 14:27N 66°31' E 012°58'910.3
2015-Aug-28 13:33N 66°22' E 012°58'1 0.0
2015-Aug-27 06:32N 66°21' E 012°58'9 8.7
2015-Aug-27 05:33N 66°30' E 012°59'27 8.4
2015-Aug-27 02:22N 66°54' E 013°26'7 8.3
2015-Aug-27 01:31N 66°60' E 013°38'9 9.0
2015-Aug-27 00:32N 67°05' E 013°55'9 8.7
2015-Aug-26 23:33N 67°12' E 014°09'9 9.4
2015-Aug-26 22:33N 67°15' E 014°31'5 5.1
2015-Aug-26 21:33N 67°18' E 014°42'0 0.0
2015-Aug-26 20:33N 67°18' E 014°42'0 0.0
2015-Aug-26 19:25N 67°18' E 014°42'7 8.0
2015-Aug-26 18:33N 67°15' E 014°27'9 9.4
2015-Aug-26 17:33N 67°11' E 014°05'10 9.8
2015-Aug-26 16:33N 67°03' E 013°50'9 9.4
2015-Aug-26 15:33N 66°58' E 013°30'10 8.9
2015-Aug-26 14:29N 66°50' E 013°16'20 9.4
2015-Aug-26 12:21N 66°31' E 012°58'8 9.8
2015-Aug-26 11:33N 66°23' E 012°58'5 0.2
2015-Aug-25 10:30N 66°18' E 012°56'10 8.9
2015-Aug-25 09:24N 66°28' E 012°59'32 8.3
2015-Aug-25 05:33N 66°58' E 013°30'9 8.8
2015-Aug-25 04:33N 67°02' E 013°48'9 8.7
2015-Aug-25 03:33N 67°09' E 014°02'9 8.6
2015-Aug-25 02:33N 67°14' E 014°21'9 8.9
2015-Aug-25 01:33N 67°18' E 014°41'0 0.4
2015-Aug-25 00:13N 67°18' E 014°42'1 1.8
2015-Aug-24 23:33N 67°17' E 014°40'9 9.3
2015-Aug-24 22:33N 67°14' E 014°18'9 9.4
2015-Aug-24 21:33N 67°07' E 014°00'10 9.9
2015-Aug-24 20:33N 67°00' E 013°42'9 8.7
2015-Aug-24 19:33N 66°54' E 013°27'10 9.4
2015-Aug-24 18:32N 66°46' E 013°13'18 9.3
2015-Aug-24 16:33N 66°29' E 012°59'10 9.9
2015-Aug-24 15:33N 66°19' E 012°56'71 2.7
2015-Aug-23 13:31N 65°13' E 011°53'8 8.6
2015-Aug-23 12:33N 65°05' E 011°47'9 8.6
2015-Aug-23 11:33N 64°58' E 011°34'9 8.9
2015-Aug-23 10:33N 64°53' E 011°18'9 8.7
2015-Aug-23 09:33N 64°46' E 011°03'51 8.5
2015-Aug-23 03:32N 64°05' E 009°54'9 8.9
2015-Aug-23 02:33N 63°58' E 009°41'9 8.8
2015-Aug-23 01:33N 63°52' E 009°27'9 8.6
2015-Aug-23 00:33N 63°44' E 009°18'  

Dump ship's entire track history